Aeroporto :
LOGIN :

Iscrizione | Disclaimer

   EN    FR    IT 

 










Sommario :    VFR   VFR Marginale   IFR   IFR Intensivo   IFR Molto Intensivo
Visibilità : 
Base nubi : 
>= 8 km
>= 3000ft
5 / 8 km
1000 / 3000 ft
1500m / 5 km
500 / 1000 ft
800 / 1500m
200 / 500 ft
< 800m
< 200 ft
Simboli :   Temporali  Nebbia  Neve Forte  Precipitazioni Forti  Vento > 20 kt
SIGMETs :   Varie  Temporali  Ghiacco  Turbolenza  Onda orograficha  Ceneri Vulcaniche







- Altitudine del aeroporto : 876 ft
- Codice IATA : MBX


LJMB - Maribor

ULTIMO METAR :
  • 241130Z 21010KT 9999 SCT040 20/12 Q1014

METARs OBSOLETI :
  • 241100Z 22008KT 170V240 9999 BKN043 20/12 Q1014
  • 241030Z 21007KT 170V240 9999 BKN029 20/13 Q1014
  • 241000Z 22010KT 180V240 9999 SCT025 19/12 Q1014
  • 240930Z 19010KT 9999 FEW026 SCT033 18/13 Q1014
  • 240900Z 19008KT 160V230 9999 FEW026 SCT033 17/13 Q1014

TAF TAF LJMB
Valido dal 24 a 12 ore il 25 a 12 ore UTC


241100Z 2412/2512 19010KT 9999 SCT030
PROB30
TEMPO 2412/2415 7000 SHRA BKN030TCU
BECMG 2418/2420 19006KT
BECMG 2508/2510 19010KT
Nessun NOTAM noto per questo aeroporto.



MetMap, La meteo Aeronautica in un colpo d'occhio ! - Copyright ORBIFLY Dicembre 2007 - Disclaimer

ORBIFLY MET'MAP TEAM :

Programmazione e sviluppo : Alexandra Zaïnal
Concezione e sviluppo : Baudouin d'Aumeries
Co-Programmazione e sviluppo : Marc-Olivier Méhu
Supporto tecnico e logistico : Manuel Goepfert
Aiuto per la traduzione : Arnaldo La Scala

Contatto : metmap@orbifly.com




FONTI E CREDITI :

   NOAA